createdAt,value
2022-12-08T00:18:46.693Z,8.50
2022-12-08T00:32:42.956Z,9.37
2022-12-08T00:46:35.657Z,10.00
2022-12-08T00:49:03.685Z,9.33
2022-12-08T00:52:20.325Z,8.83
2022-12-08T00:55:29.957Z,9.20
2022-12-08T00:57:57.628Z,8.67
2022-12-08T01:04:08.102Z,9.37
2022-12-08T01:06:42.209Z,8.73
2022-12-08T01:09:28.083Z,9.33
2022-12-08T01:11:57.805Z,8.47
2022-12-08T01:14:27.606Z,9.93
2022-12-08T01:19:53.558Z,7.53
2022-12-08T01:22:21.218Z,9.23
2022-12-08T01:24:48.878Z,9.17
2022-12-08T01:27:16.913Z,8.87
2022-12-08T01:29:44.597Z,9.60
2022-12-08T01:32:12.238Z,9.67
2022-12-08T01:34:40.045Z,9.17
2022-12-08T01:37:09.119Z,9.30
2022-12-08T01:39:36.772Z,8.83
2022-12-08T01:42:04.620Z,8.93
2022-12-08T01:44:55.744Z,9.27
2022-12-08T01:47:28.327Z,9.37
2022-12-08T01:49:56.088Z,8.57
2022-12-08T01:52:30.063Z,9.03
2022-12-08T01:55:02.054Z,9.60
2022-12-08T01:57:34.274Z,9.13
2022-12-08T02:00:05.436Z,8.20
2022-12-08T02:02:50.952Z,8.43
2022-12-08T02:05:21.400Z,9.03
2022-12-08T02:07:51.216Z,8.07
2022-12-08T02:10:20.947Z,8.40
2022-12-08T02:12:50.092Z,7.43
2022-12-08T02:15:18.017Z,8.67
2022-12-08T02:17:58.777Z,9.30
2022-12-08T02:20:42.738Z,8.57
2022-12-08T02:23:24.970Z,8.13
2022-12-08T02:26:35.248Z,8.03
2022-12-08T02:29:40.267Z,8.47
2022-12-08T02:32:24.436Z,8.63
2022-12-08T02:35:01.095Z,8.70
2022-12-08T02:37:33.686Z,8.57
2022-12-08T02:40:08.355Z,8.90
2022-12-08T02:42:41.504Z,8.67
2022-12-08T02:45:15.697Z,9.33
2022-12-08T02:47:44.374Z,9.03
2022-12-08T02:50:13.807Z,9.60
2022-12-08T02:52:47.013Z,8.40
2022-12-08T02:55:23.445Z,9.20
2022-12-08T02:58:18.580Z,8.97
2022-12-08T03:01:01.596Z,9.07
2022-12-08T03:03:36.601Z,9.43
2022-12-08T03:06:16.753Z,8.57
2022-12-08T03:08:52.526Z,9.23
2022-12-08T03:11:24.038Z,9.43
2022-12-08T03:13:56.556Z,9.43
2022-12-08T03:16:26.864Z,9.43
2022-12-08T03:19:00.180Z,9.63
2022-12-08T03:21:33.112Z,8.87
2022-12-08T03:24:06.142Z,9.27
2022-12-08T03:26:42.255Z,10.23
2022-12-08T03:29:10.037Z,8.70
2022-12-08T03:31:42.710Z,9.30
2022-12-08T03:34:12.121Z,9.47
2022-12-08T03:36:41.121Z,9.33
2022-12-08T03:39:08.712Z,9.00
2022-12-08T03:41:36.324Z,9.87
2022-12-08T03:44:03.928Z,11.30
2022-12-08T03:46:32.143Z,10.10
2022-12-08T03:48:59.732Z,9.93
2022-12-08T03:51:28.057Z,9.30
2022-12-08T03:53:57.518Z,9.83
2022-12-08T03:56:26.711Z,9.77
2022-12-08T03:58:55.307Z,10.03
2022-12-08T04:01:23.847Z,9.60
2022-12-08T04:03:51.687Z,9.57
2022-12-08T04:06:20.159Z,11.10
2022-12-08T04:08:47.832Z,9.63
2022-12-08T04:11:17.285Z,10.10
2022-12-08T04:13:45.430Z,9.23
2022-12-08T04:16:17.506Z,9.97
2022-12-08T04:18:45.238Z,9.70
2022-12-08T04:21:12.872Z,10.53
2022-12-08T04:23:40.676Z,10.13
2022-12-08T04:26:08.583Z,10.23
2022-12-08T04:28:37.569Z,10.70
2022-12-08T04:31:05.826Z,10.27
2022-12-08T04:33:35.105Z,10.23
2022-12-08T04:36:03.056Z,10.40
2022-12-08T04:38:30.733Z,10.70
2022-12-08T04:40:58.433Z,9.43
2022-12-08T04:43:26.090Z,10.30
2022-12-08T04:45:55.081Z,10.53
2022-12-08T04:48:22.668Z,9.97
2022-12-08T04:50:50.279Z,10.47
2022-12-08T04:53:19.687Z,11.13
2022-12-08T04:55:48.626Z,10.43
2022-12-08T04:58:18.399Z,10.43
2022-12-08T05:00:47.394Z,11.30
2022-12-08T05:03:16.902Z,9.70
2022-12-08T05:05:44.662Z,10.93
2022-12-08T05:08:12.507Z,10.40
2022-12-08T05:10:40.409Z,10.17
2022-12-08T05:13:08.198Z,10.70
2022-12-08T05:15:35.863Z,9.67
2022-12-08T05:18:03.474Z,10.10
2022-12-08T05:20:32.438Z,10.23
2022-12-08T05:23:00.058Z,10.23
2022-12-08T05:25:27.735Z,11.00
2022-12-08T05:28:17.496Z,11.17
2022-12-08T05:30:43.064Z,10.03
2022-12-08T05:33:10.700Z,10.57
2022-12-08T05:35:39.792Z,10.10
2022-12-08T05:38:08.025Z,10.90
2022-12-08T05:40:35.653Z,10.10
2022-12-08T05:43:03.244Z,9.83
2022-12-08T05:45:30.971Z,9.73
2022-12-08T05:47:58.603Z,10.67
2022-12-08T05:50:26.190Z,9.80
2022-12-08T05:52:55.221Z,10.23
2022-12-08T05:55:22.934Z,9.63
2022-12-08T05:57:50.574Z,10.33
2022-12-08T06:00:19.137Z,9.40
2022-12-08T06:02:46.831Z,10.40
2022-12-08T06:05:14.570Z,10.43
2022-12-08T06:07:42.266Z,10.40
2022-12-08T06:10:12.277Z,10.67
2022-12-08T06:12:40.327Z,10.10
2022-12-08T06:15:08.871Z,11.77
2022-12-08T06:17:36.506Z,9.90
2022-12-08T06:20:04.948Z,9.70
2022-12-08T06:22:32.812Z,10.00
2022-12-08T06:25:00.473Z,10.00
2022-12-08T06:27:29.517Z,9.13
2022-12-08T06:29:57.576Z,9.37
2022-12-08T06:32:27.618Z,9.60
2022-12-08T06:34:58.530Z,9.03
2022-12-08T06:37:26.104Z,9.00
2022-12-08T06:39:54.515Z,9.77
2022-12-08T06:42:39.617Z,9.17
2022-12-08T06:45:10.114Z,9.83
2022-12-08T06:47:37.728Z,9.73
2022-12-08T06:50:07.194Z,9.53
2022-12-08T06:52:40.840Z,8.67
2022-12-08T06:55:29.184Z,10.27
2022-12-08T06:58:01.214Z,10.10
2022-12-08T07:00:30.432Z,9.50
2022-12-08T07:02:58.103Z,9.97
2022-12-08T07:05:25.734Z,10.53
2022-12-08T07:07:53.374Z,10.67
2022-12-08T07:10:21.048Z,9.60
2022-12-08T07:12:48.638Z,9.23
2022-12-08T07:15:17.089Z,10.07
2022-12-08T07:17:46.101Z,10.30
2022-12-08T07:20:13.953Z,10.23
2022-12-08T07:22:41.633Z,9.83
2022-12-08T07:25:09.932Z,9.77
2022-12-08T07:27:37.516Z,8.87
2022-12-08T07:30:06.313Z,9.97
2022-12-08T07:32:34.258Z,9.13
2022-12-08T07:35:03.206Z,9.87
2022-12-08T07:37:30.805Z,10.10
2022-12-08T07:39:58.444Z,10.07
2022-12-08T07:42:26.238Z,10.10
2022-12-08T07:44:53.841Z,9.53
2022-12-08T07:47:21.616Z,9.70
2022-12-08T07:49:49.212Z,9.57
2022-12-08T07:52:18.178Z,9.93
2022-12-08T07:54:45.825Z,9.53
2022-12-08T07:57:13.441Z,9.27
2022-12-08T07:59:41.032Z,9.57
2022-12-08T08:02:25.958Z,8.80
2022-12-08T08:04:54.492Z,7.50
2022-12-08T08:07:23.523Z,7.27
2022-12-08T08:09:51.100Z,6.87
2022-12-08T08:12:33.928Z,7.00
2022-12-08T08:15:02.214Z,7.43
2022-12-08T08:17:30.548Z,6.93
2022-12-08T08:19:58.459Z,8.13
2022-12-08T08:22:27.763Z,7.30
2022-12-08T08:24:55.902Z,8.60
2022-12-08T08:27:24.867Z,9.83
2022-12-08T08:29:52.712Z,9.73
2022-12-08T08:32:20.355Z,9.27
2022-12-08T08:34:47.940Z,9.00
2022-12-08T08:37:15.660Z,9.67
2022-12-08T08:39:44.616Z,9.67
2022-12-08T08:42:12.260Z,9.73
2022-12-08T08:44:39.957Z,10.30
2022-12-08T08:47:07.740Z,9.70
2022-12-08T08:49:35.826Z,9.37
2022-12-08T08:52:05.075Z,10.13
2022-12-08T08:54:33.096Z,9.73
2022-12-08T08:57:02.608Z,9.73
2022-12-08T08:59:30.391Z,10.67
2022-12-08T09:01:58.073Z,10.70
2022-12-08T09:04:26.338Z,10.40
2022-12-08T09:06:54.038Z,9.43
2022-12-08T09:09:21.637Z,10.33
2022-12-08T09:11:49.234Z,10.03
2022-12-08T09:14:18.195Z,10.53
2022-12-08T09:16:45.818Z,10.47
2022-12-08T09:19:13.562Z,9.57
2022-12-08T09:21:41.746Z,10.00
2022-12-08T09:24:15.385Z,9.90
2022-12-08T09:26:44.034Z,10.20
2022-12-08T09:29:13.642Z,10.50
2022-12-08T09:31:42.887Z,10.13
2022-12-08T09:34:11.937Z,10.37
2022-12-08T09:36:39.950Z,10.53
2022-12-08T09:39:07.845Z,9.67
2022-12-08T09:41:43.272Z,11.03
2022-12-08T09:44:39.554Z,11.07
2022-12-08T09:47:17.174Z,10.80
2022-12-08T09:49:52.744Z,9.93
2022-12-08T09:52:24.912Z,10.63
2022-12-08T09:54:52.710Z,11.13
2022-12-08T09:57:23.501Z,11.07
2022-12-08T09:59:56.573Z,10.30
2022-12-08T10:02:27.450Z,10.20
2022-12-08T10:04:57.536Z,10.60
2022-12-08T10:07:33.021Z,11.17
2022-12-08T10:10:07.005Z,11.63
2022-12-08T10:12:44.263Z,11.20
2022-12-08T10:15:40.270Z,11.23
2022-12-08T10:18:15.918Z,10.23
2022-12-08T10:20:50.196Z,11.00
2022-12-08T10:23:26.023Z,10.60
2022-12-08T10:25:58.723Z,12.47
2022-12-08T10:28:26.596Z,11.10
2022-12-08T10:30:54.222Z,11.73
2022-12-08T10:33:24.378Z,11.60
2022-12-08T10:35:53.751Z,11.73
2022-12-08T10:38:28.352Z,11.07
2022-12-08T10:41:04.288Z,10.80
2022-12-08T10:43:32.992Z,12.40
2022-12-08T10:46:11.197Z,12.30
2022-12-08T10:48:49.029Z,12.60
2022-12-08T10:51:24.779Z,10.80
2022-12-08T10:53:52.469Z,12.13
2022-12-08T10:56:20.079Z,12.93
2022-12-08T10:58:48.952Z,11.80
2022-12-08T11:01:21.136Z,11.37
2022-12-08T11:03:51.856Z,10.80
2022-12-08T11:06:21.591Z,12.23
2022-12-08T11:08:54.972Z,12.60
2022-12-08T11:11:37.763Z,11.93
2022-12-08T11:14:08.155Z,10.90
2022-12-08T11:16:36.551Z,12.10
2022-12-08T11:19:07.429Z,12.20
2022-12-08T11:21:38.411Z,11.90
2022-12-08T11:24:23.066Z,11.63
2022-12-08T11:26:54.479Z,12.93
2022-12-08T11:29:22.578Z,12.20
2022-12-08T11:31:54.707Z,12.83
2022-12-08T11:34:32.780Z,12.47
2022-12-08T11:37:00.817Z,12.03
2022-12-08T11:39:33.208Z,12.70
2022-12-08T11:42:04.271Z,11.23
2022-12-08T11:44:37.685Z,11.73
2022-12-08T11:47:13.480Z,11.83
2022-12-08T11:49:43.729Z,11.67
2022-12-08T11:52:22.233Z,11.40
2022-12-08T11:54:54.238Z,11.43
2022-12-08T11:57:25.231Z,11.17
2022-12-08T11:59:55.431Z,10.77
2022-12-08T12:02:26.375Z,11.60
2022-12-08T12:05:00.624Z,11.67
2022-12-08T12:07:54.400Z,11.00
2022-12-08T12:10:47.302Z,10.60
2022-12-08T12:13:31.780Z,12.03
2022-12-08T12:16:32.080Z,10.60
2022-12-08T12:19:02.583Z,10.10
2022-12-08T12:21:35.837Z,10.20
2022-12-08T12:24:08.826Z,11.10
2022-12-08T12:26:39.189Z,9.10
2022-12-08T12:29:13.276Z,10.17
2022-12-08T12:31:44.284Z,9.97
2022-12-08T12:34:18.284Z,10.27
2022-12-08T12:36:52.165Z,9.80
2022-12-08T12:39:22.815Z,9.93
2022-12-08T12:41:53.918Z,10.90
2022-12-08T12:44:43.409Z,10.07
2022-12-08T12:47:36.757Z,10.77
2022-12-08T12:50:13.469Z,10.17
2022-12-08T12:52:44.084Z,11.20
2022-12-08T12:55:23.217Z,11.43
2022-12-08T12:57:54.395Z,11.30
2022-12-08T13:00:24.028Z,9.37
2022-12-08T13:02:53.022Z,11.27
2022-12-08T13:05:23.779Z,10.60
2022-12-08T13:07:56.542Z,10.27
2022-12-08T13:10:26.545Z,10.37
2022-12-08T13:13:06.537Z,10.67
2022-12-08T13:15:40.333Z,10.90
2022-12-08T13:18:17.559Z,10.07
2022-12-08T13:20:49.476Z,9.37
2022-12-08T13:23:42.999Z,10.37
2022-12-08T13:26:14.290Z,10.70
2022-12-08T13:29:21.571Z,10.67
2022-12-08T13:31:52.317Z,10.37
2022-12-08T13:34:31.269Z,10.57
2022-12-08T13:37:09.832Z,9.97
2022-12-08T13:39:47.676Z,9.60
2022-12-08T13:42:22.345Z,9.43
2022-12-08T13:45:20.188Z,9.70
2022-12-08T13:48:20.622Z,9.77
2022-12-08T13:51:10.559Z,9.10
2022-12-08T13:54:35.401Z,10.13
2022-12-08T13:59:28.114Z,9.53
2022-12-08T14:01:58.327Z,10.07
2022-12-08T14:04:54.560Z,9.10
2022-12-08T14:07:15.358Z,11.60
2022-12-08T14:09:43.713Z,10.57
2022-12-08T14:12:53.316Z,10.03
2022-12-08T14:15:22.100Z,9.90
2022-12-08T14:17:53.265Z,10.67
2022-12-08T14:21:04.997Z,11.00
2022-12-08T14:23:29.041Z,10.60
2022-12-08T14:25:57.634Z,9.97
2022-12-08T14:28:27.096Z,11.63
2022-12-08T14:30:56.716Z,10.40
2022-12-08T14:33:24.732Z,10.17
2022-12-08T14:35:54.790Z,11.00
2022-12-08T14:38:24.609Z,10.53
2022-12-08T14:41:02.960Z,10.60
2022-12-08T14:43:32.220Z,11.23
2022-12-08T14:46:03.231Z,11.60
2022-12-08T14:48:44.559Z,11.33
2022-12-08T14:51:22.468Z,12.17
2022-12-08T14:53:55.979Z,10.67
2022-12-08T14:56:27.345Z,11.30
2022-12-08T14:59:08.632Z,11.83
2022-12-08T15:01:37.132Z,11.50
2022-12-08T15:04:11.146Z,10.37
2022-12-08T15:06:46.177Z,11.67
2022-12-08T15:09:28.793Z,10.80
2022-12-08T15:12:02.250Z,11.17
2022-12-08T15:14:33.227Z,12.30
2022-12-08T15:17:01.047Z,10.97
2022-12-08T15:19:31.180Z,11.40
2022-12-08T15:22:00.556Z,11.63
2022-12-08T15:24:31.661Z,10.87
2022-12-08T15:26:59.336Z,11.20
2022-12-08T15:29:29.460Z,10.93
2022-12-08T15:32:01.060Z,11.30
2022-12-08T15:34:28.830Z,10.53
2022-12-08T15:36:57.641Z,12.37
2022-12-08T15:39:33.416Z,12.13
2022-12-08T15:42:02.111Z,11.00
2022-12-08T15:44:32.493Z,10.87
2022-12-08T15:47:02.060Z,10.73
2022-12-08T15:49:29.834Z,11.57
2022-12-08T15:52:20.677Z,10.57
2022-12-08T16:01:07.618Z,10.20
2022-12-08T16:04:27.622Z,10.83
2022-12-08T16:07:13.011Z,10.63
2022-12-08T16:09:20.638Z,11.93
2022-12-08T16:12:08.182Z,10.10
2022-12-08T16:17:25.332Z,11.73
2022-12-08T16:19:55.230Z,11.63
2022-12-08T16:23:03.280Z,11.47
2022-12-08T16:26:08.638Z,11.67
2022-12-08T16:31:17.719Z,11.80
2022-12-08T16:33:49.080Z,11.30
2022-12-08T16:36:24.219Z,11.40
2022-12-08T16:38:55.522Z,11.40
2022-12-08T16:41:40.930Z,11.27
2022-12-08T16:44:08.610Z,10.83
2022-12-08T16:46:37.010Z,11.00
2022-12-08T16:49:05.886Z,12.17
2022-12-08T16:51:34.993Z,12.20
2022-12-08T16:54:02.595Z,12.20
2022-12-08T16:56:33.131Z,12.93
2022-12-08T16:59:02.688Z,13.38
2022-12-08T17:01:30.457Z,13.30
2022-12-08T17:06:47.124Z,11.57
2022-12-08T17:09:14.727Z,12.70
2022-12-08T17:11:43.641Z,12.27
2022-12-08T17:14:12.189Z,11.87
2022-12-08T17:16:39.906Z,12.13
2022-12-08T17:19:07.642Z,11.73
2022-12-08T17:25:28.759Z,12.77
2022-12-08T17:27:57.086Z,11.90
2022-12-08T17:30:25.007Z,12.27
2022-12-08T17:32:53.713Z,12.10
2022-12-08T17:35:21.612Z,12.30
2022-12-08T17:37:49.251Z,12.13
2022-12-08T17:40:16.876Z,11.73
2022-12-08T17:42:46.386Z,12.10
2022-12-08T17:45:15.595Z,11.73
2022-12-08T17:47:43.400Z,11.23
2022-12-08T17:50:11.571Z,12.37
2022-12-08T17:52:39.247Z,11.50
2022-12-08T17:55:07.974Z,11.67
2022-12-08T17:57:35.698Z,12.17
2022-12-08T18:00:06.566Z,11.27
2022-12-08T18:02:35.498Z,12.20
2022-12-08T18:05:03.201Z,12.80
2022-12-08T18:07:31.125Z,11.83
2022-12-08T18:09:58.854Z,12.93
2022-12-08T18:12:26.469Z,12.20
2022-12-08T18:14:54.184Z,12.63
2022-12-08T18:17:24.885Z,12.33
2022-12-08T18:19:52.691Z,11.47
2022-12-08T18:22:25.426Z,10.53
2022-12-08T18:24:53.168Z,11.53
2022-12-08T18:27:20.958Z,12.20
2022-12-08T18:29:48.700Z,12.20
2022-12-08T18:32:18.874Z,11.63
2022-12-08T18:34:47.911Z,11.30
2022-12-08T18:37:17.117Z,12.30
2022-12-08T18:39:52.357Z,11.90
2022-12-08T18:42:28.243Z,11.87
2022-12-08T18:45:01.628Z,13.00
2022-12-08T18:47:29.618Z,13.30
2022-12-08T18:49:59.009Z,12.93
2022-12-08T18:52:32.332Z,11.80
2022-12-08T18:55:07.887Z,12.40
2022-12-08T18:57:37.687Z,13.93
2022-12-08T19:00:07.426Z,12.53
2022-12-08T19:02:36.166Z,12.73
2022-12-08T19:05:05.852Z,12.33
2022-12-08T19:07:33.554Z,13.70
2022-12-08T19:10:01.218Z,12.03
2022-12-08T19:12:28.851Z,13.00
2022-12-08T19:14:58.121Z,11.73
2022-12-08T19:17:26.522Z,13.93
2022-12-08T19:19:54.214Z,12.13
2022-12-08T19:22:23.176Z,13.13
2022-12-08T19:24:50.906Z,13.70
2022-12-08T19:27:18.624Z,13.60
2022-12-08T19:29:46.303Z,12.90
2022-12-08T19:32:13.923Z,12.37
2022-12-08T19:34:42.122Z,12.63
2022-12-08T19:37:13.032Z,12.43
2022-12-08T19:39:59.228Z,13.63
2022-12-08T19:42:44.776Z,13.60
2022-12-08T19:45:15.673Z,12.80
2022-12-08T19:47:44.033Z,12.83
2022-12-08T19:50:31.007Z,14.33
2022-12-08T19:52:59.290Z,14.43
2022-12-08T19:55:32.056Z,13.40
2022-12-08T19:58:01.727Z,13.30
2022-12-08T20:00:30.487Z,13.63
2022-12-08T20:02:58.808Z,14.07
2022-12-08T20:05:27.153Z,13.60
2022-12-08T20:08:10.959Z,14.50
2022-12-08T20:10:46.751Z,13.83
2022-12-08T20:13:31.855Z,12.53
2022-12-08T20:16:04.403Z,12.23
2022-12-08T20:18:32.103Z,13.33
2022-12-08T20:21:00.347Z,14.27
2022-12-08T20:23:28.051Z,13.33
2022-12-08T20:26:00.571Z,14.50
2022-12-08T20:28:28.229Z,13.47
2022-12-08T20:30:55.999Z,13.03
2022-12-08T20:33:23.782Z,13.93
2022-12-08T20:36:08.335Z,14.43
2022-12-08T20:38:45.357Z,13.80
2022-12-08T20:41:18.061Z,13.07
2022-12-08T20:43:46.313Z,13.73
2022-12-08T20:46:23.361Z,14.90
2022-12-08T20:48:54.745Z,14.33
2022-12-08T20:51:31.725Z,13.50
2022-12-08T20:54:00.879Z,14.73
2022-12-08T20:56:34.407Z,13.43
2022-12-08T20:59:02.366Z,13.97
2022-12-08T21:01:30.220Z,14.20
2022-12-08T21:03:58.177Z,14.90
2022-12-08T21:06:27.781Z,15.97
2022-12-08T21:08:55.593Z,16.00
2022-12-08T21:11:23.667Z,14.77
2022-12-08T21:13:53.078Z,14.53
2022-12-08T21:16:20.829Z,14.73
2022-12-08T21:18:48.667Z,14.97
2022-12-08T21:21:17.840Z,15.17
2022-12-08T21:23:45.929Z,14.63
2022-12-08T21:26:14.962Z,14.80
2022-12-08T21:28:43.277Z,14.93
2022-12-08T21:31:20.421Z,15.43
2022-12-08T21:33:50.485Z,14.50
2022-12-08T21:36:21.460Z,16.17
2022-12-08T21:38:51.377Z,15.53
2022-12-08T21:41:39.711Z,15.30
2022-12-08T21:44:14.364Z,14.77
2022-12-08T21:46:53.848Z,15.23
2022-12-08T21:49:25.950Z,14.07
2022-12-08T21:52:07.660Z,14.90
2022-12-08T21:54:36.979Z,13.77
2022-12-08T21:57:08.149Z,13.00
2022-12-08T21:59:37.520Z,13.67
2022-12-08T22:02:15.571Z,13.93
2022-12-08T22:04:48.159Z,14.13
2022-12-08T22:07:18.021Z,14.10
2022-12-08T22:09:53.942Z,13.93
2022-12-08T22:12:25.474Z,13.97
2022-12-08T22:15:00.228Z,14.10
2022-12-08T22:17:45.058Z,13.57
2022-12-08T22:20:19.086Z,14.07
2022-12-08T22:22:54.939Z,15.20
2022-12-08T22:25:31.804Z,14.40
2022-12-08T22:28:21.505Z,14.37
2022-12-08T22:30:50.659Z,14.77
2022-12-08T22:33:23.214Z,13.80
2022-12-08T22:36:11.049Z,13.97
2022-12-08T22:38:45.868Z,14.70
2022-12-08T22:41:16.049Z,15.37
2022-12-08T22:44:02.891Z,15.20
2022-12-08T22:46:41.136Z,16.20
2022-12-08T22:49:25.747Z,14.60
2022-12-08T22:51:56.831Z,15.13
2022-12-08T22:54:31.720Z,15.07
2022-12-08T22:56:59.416Z,14.90
2022-12-08T22:59:36.476Z,14.93
2022-12-08T23:02:07.876Z,16.80
2022-12-08T23:04:48.281Z,16.03
2022-12-08T23:07:21.457Z,15.77
2022-12-08T23:09:54.144Z,15.00
2022-12-08T23:13:05.077Z,14.63
2022-12-08T23:15:44.059Z,14.47
2022-12-08T23:18:17.942Z,14.73
2022-12-08T23:20:54.424Z,15.20
2022-12-08T23:23:27.552Z,15.63
2022-12-08T23:26:00.546Z,13.47
2022-12-08T23:28:51.996Z,14.00
2022-12-08T23:31:43.322Z,14.63
2022-12-08T23:34:11.631Z,13.67
2022-12-08T23:39:36.243Z,13.83
2022-12-08T23:42:05.779Z,13.67
2022-12-08T23:44:33.474Z,14.40
2022-12-08T23:47:01.811Z,14.10
2022-12-08T23:49:31.266Z,15.80
2022-12-08T23:52:02.960Z,14.80
2022-12-08T23:54:32.224Z,13.13
2022-12-08T23:56:59.917Z,13.37
2022-12-08T23:59:34.876Z,13.33
